Time;durP1;ratioP1;P1;durP2;ratioP2;P2;SDS_P1;SDS_P2;PMS_P1;PMS_P2;Temp;Humidity;BMP_temperature;BMP_pressure;BME280_temperature;BME280_humidity;BME280_pressure;Samples;Min_cycle;Max_cycle;Signal;HPM_P1;HPM_P2
2022/04/27 00:02:14;;;;;;;3.90;3.33;;;11.10;54.40;;;;;;5055687;28;20057;-89
2022/04/27 00:04:41;;;;;;;3.88;3.47;;;11.10;54.40;;;;;;5038436;28;20047;-90
2022/04/27 00:07:09;;;;;;;3.28;2.85;;;11.00;54.40;;;;;;5030914;28;20518;-90
2022/04/27 00:09:36;;;;;;;3.88;3.28;;;10.70;54.30;;;;;;5029876;28;20041;-89
2022/04/27 00:12:03;;;;;;;3.88;3.42;;;10.80;54.50;;;;;;5034888;28;20041;-89
2022/04/27 00:14:31;;;;;;;3.50;2.95;;;10.70;54.40;;;;;;5054234;28;20132;-90
2022/04/27 00:16:59;;;;;;;4.20;2.97;;;10.90;54.50;;;;;;5041207;28;20087;-90
2022/04/27 00:19:27;;;;;;;3.40;2.80;;;10.70;54.70;;;;;;5055854;28;20514;-90
2022/04/27 00:21:54;;;;;;;3.10;2.70;;;10.60;54.60;;;;;;5038939;28;20053;-89
2022/04/27 00:24:21;;;;;;;4.28;3.60;;;10.80;54.80;;;;;;5038368;28;20049;-90
2022/04/27 00:26:48;;;;;;;4.75;3.42;;;10.80;54.80;;;;;;5029288;28;20037;-89
2022/04/27 00:29:15;;;;;;;4.43;2.63;;;10.80;54.80;;;;;;5029768;28;20480;-88
2022/04/27 00:31:42;;;;;;;3.17;2.90;;;10.80;54.90;;;;;;5038306;28;20112;-90
2022/04/27 00:34:09;;;;;;;4.78;3.58;;;10.70;54.90;;;;;;5043623;28;20532;-89
2022/04/27 00:36:36;;;;;;;3.53;2.75;;;10.70;54.90;;;;;;5040380;28;20048;-89
2022/04/27 00:39:03;;;;;;;4.65;3.53;;;10.60;54.90;;;;;;5041679;28;20056;-89
2022/04/27 00:41:30;;;;;;;5.00;3.45;;;10.60;55.00;;;;;;5022035;28;20049;-90
2022/04/27 00:43:57;;;;;;;3.38;3.08;;;10.50;55.10;;;;;;5028194;28;20040;-89
2022/04/27 00:46:25;;;;;;;4.10;3.35;;;10.60;55.20;;;;;;5057529;28;20561;-87
2022/04/27 00:48:52;;;;;;;3.03;2.78;;;10.60;55.10;;;;;;5058531;28;20049;-89
2022/04/27 00:51:22;;;;;;;3.80;3.40;;;10.40;55.20;;;;;;5057455;28;20044;-89
2022/04/27 00:53:50;;;;;;;3.45;3.15;;;10.30;55.10;;;;;;5037605;28;20128;-89
2022/04/27 00:56:18;;;;;;;3.70;3.15;;;10.30;55.00;;;;;;5037407;28;20049;-90
2022/04/27 00:58:47;;;;;;;4.00;3.60;;;10.50;55.30;;;;;;5042732;28;20053;-88
2022/04/27 01:01:18;;;;;;;3.42;3.13;;;10.30;55.20;;;;;;5041000;28;20508;-88
2022/04/27 01:03:45;;;;;;;3.90;3.45;;;10.20;55.30;;;;;;5039049;28;20127;-89
2022/04/27 01:06:13;;;;;;;4.63;3.85;;;10.10;55.30;;;;;;5020493;28;20041;-88
2022/04/27 01:08:40;;;;;;;4.63;3.40;;;10.30;55.50;;;;;;5057641;28;20068;-88
2022/04/27 01:11:07;;;;;;;4.03;3.40;;;10.30;55.50;;;;;;5047730;28;20032;-89
2022/04/27 01:13:42;;;;;;;3.88;3.45;;;10.00;55.50;;;;;;5037316;28;20053;-89
2022/04/27 01:16:10;;;;;;;3.75;3.35;;;10.30;55.60;;;;;;5044633;28;20049;-88
2022/04/27 01:18:38;;;;;;;3.75;3.30;;;10.00;55.30;;;;;;5041788;28;20059;-90
2022/04/27 01:21:05;;;;;;;3.00;2.80;;;10.20;55.50;;;;;;5037119;28;20048;-90
2022/04/27 01:23:41;;;;;;;3.53;2.83;;;10.20;55.50;;;;;;5039286;28;20543;-89
2022/04/27 01:26:08;;;;;;;4.88;3.55;;;9.90;55.40;;;;;;5036452;28;20040;-89
2022/04/27 01:28:37;;;;;;;3.90;3.50;;;9.90;55.50;;;;;;5037719;28;20496;-91
2022/04/27 01:31:14;;;;;;;4.93;3.80;;;10.10;55.70;;;;;;5031069;28;20064;-87
2022/04/27 01:33:41;;;;;;;3.70;3.33;;;9.90;56.20;;;;;;5050852;28;20056;-90
2022/04/27 01:36:09;;;;;;;4.60;3.13;;;9.80;55.60;;;;;;5056097;28;20138;-89
2022/04/27 01:38:41;;;;;;;3.22;2.92;;;9.90;55.60;;;;;;5036451;28;20114;-90
2022/04/27 01:41:10;;;;;;;5.03;3.65;;;9.80;55.50;;;;;;5020208;28;20049;-90
2022/04/27 01:43:37;;;;;;;3.58;3.28;;;9.90;55.70;;;;;;5037795;28;20041;-90
2022/04/27 01:46:09;;;;;;;4.15;3.50;;;9.90;56.00;;;;;;5036822;28;20052;-89
2022/04/27 01:48:36;;;;;;;;;;;9.60;55.80;;;;;;5037183;28;20063;-88
2022/04/27 01:51:03;;;;;;;5.78;3.80;;;9.70;56.30;;;;;;5055696;28;19931;-90
2022/04/27 01:56:19;;;;;;;4.25;3.95;;;9.80;55.70;;;;;;5042551;28;20055;-87
2022/04/27 01:58:49;;;;;;;5.95;3.70;;;9.60;56.00;;;;;;5036523;28;20559;-89
2022/04/27 02:01:16;;;;;;;4.97;4.47;;;9.50;56.00;;;;;;5053293;28;20041;-89
2022/04/27 02:03:44;;;;;;;5.28;3.92;;;9.70;56.30;;;;;;5036240;28;20041;-89
2022/04/27 02:06:16;;;;;;;4.75;3.30;;;9.70;56.90;;;;;;5036341;28;20045;-89
2022/04/27 02:08:44;;;;;;;5.82;3.72;;;9.40;56.10;;;;;;5027782;28;20114;-88
2022/04/27 02:11:12;;;;;;;3.25;2.97;;;9.60;56.30;;;;;;5021863;28;20091;-88
2022/04/27 02:13:53;;;;;;;3.97;3.58;;;9.70;56.40;;;;;;5021868;28;20248;-89
2022/04/27 02:16:24;;;;;;;5.45;4.03;;;9.60;56.40;;;;;;5030064;28;20055;-89
2022/04/27 02:18:52;;;;;;;4.72;3.55;;;9.60;56.50;;;;;;5040840;28;20107;-89
2022/04/27 02:21:20;;;;;;;4.32;3.67;;;9.50;56.30;;;;;;5045512;28;20041;-88
2022/04/27 02:23:49;;;;;;;4.45;4.05;;;9.50;56.30;;;;;;5056055;28;20135;-89
2022/04/27 02:26:16;;;;;;;5.50;4.47;;;9.50;56.50;;;;;;5037495;28;20491;-90
2022/04/27 02:28:43;;;;;;;5.00;4.13;;;9.50;56.70;;;;;;5019733;28;20045;-89
2022/04/27 02:31:10;;;;;;;5.50;3.95;;;9.50;56.80;;;;;;5053196;28;20100;-89
2022/04/27 02:33:37;;;;;;;4.50;4.10;;;9.50;56.90;;;;;;5038884;28;20041;-88
2022/04/27 02:36:04;;;;;;;5.30;3.95;;;9.40;56.90;;;;;;5034549;28;20069;-88
2022/04/27 02:38:31;;;;;;;5.93;4.07;;;9.20;56.70;;;;;;5049263;28;20045;-88
2022/04/27 02:41:03;;;;;;;5.40;4.38;;;9.30;56.80;;;;;;5062359;28;20044;-88
2022/04/27 02:43:31;;;;;;;5.50;4.00;;;9.20;56.70;;;;;;5046366;28;20040;-87
2022/04/27 02:45:59;;;;;;;6.00;4.15;;;9.30;56.80;;;;;;5032725;28;20049;-88
2022/04/27 02:48:26;;;;;;;5.10;4.05;;;9.30;56.80;;;;;;5025587;28;20128;-89
2022/04/27 02:53:39;;;;;;;3.83;3.53;;;9.10;56.80;;;;;;5043144;28;20132;-89
2022/04/27 02:56:06;;;;;;;6.38;4.10;;;9.20;57.00;;;;;;5041175;28;20519;-89
2022/04/27 02:58:33;;;;;;;4.25;3.85;;;9.10;56.90;;;;;;5054547;28;20040;-89
2022/04/27 03:01:00;;;;;;;5.70;3.75;;;9.30;57.00;;;;;;5045885;28;20174;-89
2022/04/27 03:03:27;;;;;;;6.53;4.30;;;9.10;56.90;;;;;;5046369;28;20507;-89
2022/04/27 03:05:56;;;;;;;4.50;4.10;;;9.00;56.90;;;;;;5045134;28;20040;-89
2022/04/27 03:08:23;;;;;;;5.53;4.53;;;9.20;57.10;;;;;;5060549;28;20096;-89
2022/04/27 03:10:51;;;;;;;4.00;3.58;;;9.20;57.10;;;;;;5039827;28;20061;-89
2022/04/27 03:13:23;;;;;;;6.20;3.50;;;9.10;57.10;;;;;;5043184;28;20507;-89
2022/04/27 03:15:58;;;;;;;5.43;4.05;;;9.20;57.00;;;;;;5034461;28;20032;-90
2022/04/27 03:18:25;;;;;;;4.47;3.97;;;9.20;57.10;;;;;;5062168;28;20040;-90
2022/04/27 03:20:52;;;;;;;4.13;3.72;;;9.20;57.10;;;;;;5046928;28;20063;-89
2022/04/27 03:23:20;;;;;;;6.93;4.20;;;9.10;57.10;;;;;;5057118;28;20504;-89
2022/04/27 03:25:54;;;;;;;5.05;3.70;;;9.00;57.00;;;;;;5041518;28;20094;-88
2022/04/27 03:28:22;;;;;;;5.72;3.92;;;8.80;56.90;;;;;;5035825;28;20041;-89
2022/04/27 03:30:49;;;;;;;4.28;3.88;;;8.90;57.10;;;;;;5061684;28;20131;-89
2022/04/27 03:33:36;;;;;;;4.90;3.97;;;9.00;57.30;;;;;;5034683;28;20049;-88
2022/04/27 03:36:03;;;;;;;4.90;3.95;;;8.90;57.40;;;;;;5041677;28;20080;-89
2022/04/27 03:38:31;;;;;;;5.80;5.18;;;8.80;57.40;;;;;;5041439;28;20063;-89
2022/04/27 03:40:58;;;;;;;5.30;4.43;;;9.00;58.10;;;;;;5025630;28;20095;-90
2022/04/27 03:43:26;;;;;;;5.32;4.70;;;8.90;58.30;;;;;;5042862;28;20064;-89
2022/04/27 03:45:53;;;;;;;5.65;5.05;;;8.80;58.50;;;;;;5044828;28;20041;-90
2022/04/27 03:48:20;;;;;;;4.93;4.43;;;8.80;58.70;;;;;;5045627;28;20041;-90
2022/04/27 03:50:48;;;;;;;5.70;4.35;;;9.10;59.00;;;;;;5039401;28;20496;-90
2022/04/27 03:53:14;;;;;;;6.28;4.57;;;9.10;59.10;;;;;;5023100;28;20053;-89
2022/04/27 03:55:41;;;;;;;7.00;5.43;;;9.10;59.30;;;;;;5051031;28;20059;-90
2022/04/27 03:58:09;;;;;;;6.18;4.32;;;9.20;59.60;;;;;;5058840;28;20049;-90
2022/04/27 04:00:37;;;;;;;5.70;5.10;;;9.00;59.60;;;;;;5042119;28;20045;-89
2022/04/27 04:03:12;;;;;;;9.48;5.70;;;9.30;59.80;;;;;;5054942;28;20115;-89
2022/04/27 04:05:45;;;;;;;7.63;5.88;;;9.30;59.80;;;;;;5038309;28;20044;-90
2022/04/27 04:08:12;;;;;;;8.32;5.90;;;9.50;60.10;;;;;;5040004;28;20045;-89
2022/04/27 04:10:40;;;;;;;6.03;5.32;;;9.50;60.20;;;;;;5037402;28;20500;-88
2022/04/27 04:13:08;;;;;;;6.90;5.95;;;9.30;60.10;;;;;;5033741;28;20040;-89
2022/04/27 04:15:37;;;;;;;7.05;4.97;;;9.60;60.40;;;;;;5053055;28;20102;-88
2022/04/27 04:18:22;;;;;;;7.00;5.65;;;9.50;60.40;;;;;;5045818;28;20060;-89
2022/04/27 04:21:27;;;;;;;7.25;5.30;;;9.60;60.40;;;;;;4982101;28;20130;-88
2022/04/27 04:24:00;;;;;;;6.25;5.63;;;10.00;60.60;;;;;;4970803;28;20425;-88
2022/04/27 04:29:16;;;;;;;7.03;5.97;;;9.90;60.50;;;;;;5039961;28;20045;-87
2022/04/27 04:31:43;;;;;;;6.63;5.38;;;9.90;60.60;;;;;;5021159;28;20468;-88
2022/04/27 04:34:29;;;;;;;9.95;6.40;;;10.20;61.00;;;;;;5048893;28;20060;-89
2022/04/27 04:36:57;;;;;;;8.98;6.03;;;10.30;60.80;;;;;;5022165;28;20063;-90
2022/04/27 04:39:24;;;;;;;7.45;6.65;;;10.30;61.50;;;;;;5029294;28;20056;-89
2022/04/27 04:41:51;;;;;;;6.55;5.88;;;10.40;61.00;;;;;;5037660;28;20559;-88
2022/04/27 04:44:18;;;;;;;7.13;5.95;;;10.20;60.90;;;;;;5021728;28;20041;-88
2022/04/27 04:47:08;;;;;;;8.00;6.05;;;10.50;61.10;;;;;;5042567;28;20041;-89
2022/04/27 04:49:53;;;;;;;6.38;5.65;;;10.30;60.70;;;;;;5054808;28;20056;-88
2022/04/27 04:52:48;;;;;;;8.32;6.15;;;10.40;60.60;;;;;;5041542;28;20504;-88
2022/04/27 04:55:33;;;;;;;8.95;6.57;;;10.60;60.40;;;;;;5057012;28;20145;-90
2022/04/27 04:58:18;;;;;;;8.65;6.60;;;10.60;60.40;;;;;;5052648;28;20068;-89
2022/04/27 05:01:17;;;;;;;8.82;6.55;;;10.70;60.00;;;;;;4998996;28;20055;-88
2022/04/27 05:03:53;;;;;;;8.55;6.55;;;10.40;59.60;;;;;;5041079;28;20053;-89
2022/04/27 05:06:49;;;;;;;7.38;6.20;;;10.60;59.70;;;;;;5046066;28;20037;-88
2022/04/27 05:09:44;;;;;;;8.27;6.40;;;10.50;59.60;;;;;;5035730;28;20045;-89
2022/04/27 05:12:40;;;;;;;9.68;6.70;;;10.30;59.40;;;;;;5041123;28;20134;-88
2022/04/27 05:15:09;;;;;;;6.85;6.03;;;10.20;59.30;;;;;;5051728;28;20055;-89
2022/04/27 05:17:50;;;;;;;9.02;6.55;;;10.30;59.50;;;;;;5036729;28;20045;-89
2022/04/27 05:20:41;;;;;;;7.43;6.30;;;10.50;59.70;;;;;;5024137;28;20061;-90
2022/04/27 05:23:24;;;;;;;8.32;6.35;;;10.30;59.60;;;;;;5041285;28;20140;-88
2022/04/27 05:26:16;;;;;;;7.47;6.15;;;10.20;59.80;;;;;;5075100;22;20806;-46
2022/04/27 05:31:55;;;;;;;8.57;6.50;;;10.10;59.90;;;;;;5030433;28;20501;-47
2022/04/27 05:34:41;;;;;;;7.22;5.85;;;10.10;59.90;;;;;;5054792;28;20494;-48
2022/04/27 05:37:23;;;;;;;7.75;6.82;;;10.10;60.10;;;;;;5034452;28;20070;-47
2022/04/27 05:40:10;;;;;;;9.88;7.15;;;10.10;60.20;;;;;;5058341;28;20051;-46
2022/04/27 05:42:50;;;;;;;10.43;7.47;;;10.10;60.50;;;;;;5045511;28;20048;-46
2022/04/27 05:45:45;;;;;;;11.50;8.00;;;10.10;60.50;;;;;;5045563;28;20060;-49
2022/04/27 05:48:40;;;;;;;9.82;8.25;;;10.20;60.50;;;;;;5055098;28;20491;-47
2022/04/27 05:51:36;;;;;;;11.43;7.75;;;10.20;60.70;;;;;;5034058;28;20114;-49
2022/04/27 05:54:20;;;;;;;12.48;8.68;;;10.20;60.80;;;;;;5040046;28;20044;-46
2022/04/27 05:57:05;;;;;;;11.52;8.38;;;10.20;60.60;;;;;;5065668;28;20043;-49
2022/04/27 05:59:43;;;;;;;12.68;9.30;;;10.30;60.70;;;;;;5045894;28;20526;-46
2022/04/27 06:02:31;;;;;;;13.40;8.38;;;10.30;60.70;;;;;;5050140;28;20725;-49
2022/04/27 06:04:59;;;;;;;13.35;9.07;;;10.40;60.60;;;;;;5038101;28;20703;-47
2022/04/27 06:07:26;;;;;;;10.02;8.50;;;10.40;60.70;;;;;;5041815;28;20496;-47
2022/04/27 06:09:57;;;;;;;11.02;8.30;;;10.40;60.70;;;;;;5031295;28;20107;-49
2022/04/27 06:12:35;;;;;;;14.85;9.05;;;10.50;60.90;;;;;;5038292;28;20043;-46
2022/04/27 06:15:21;;;;;;;;;;;10.60;61.30;;;;;;5088256;22;20262;-47
2022/04/27 06:17:55;;;;;;;9.23;7.82;;;10.70;61.30;;;;;;5051644;28;19974;-50
2022/04/27 06:20:24;;;;;;;12.77;9.00;;;10.70;60.20;;;;;;5036664;28;20045;-47
2022/04/27 06:22:51;;;;;;;12.27;8.95;;;10.70;60.40;;;;;;5050407;28;20045;-49
2022/04/27 06:25:20;;;;;;;13.15;10.02;;;10.80;60.70;;;;;;5045127;28;20643;-51
2022/04/27 06:27:52;;;;;;;12.18;9.65;;;10.80;60.80;;;;;;5022899;28;20048;-50
2022/04/27 06:30:24;;;;;;;16.83;9.95;;;10.90;60.80;;;;;;5022495;28;20091;-51
2022/04/27 06:32:51;;;;;;;12.35;9.75;;;10.90;61.00;;;;;;5027306;28;20488;-51
2022/04/27 06:35:21;;;;;;;12.80;9.48;;;10.90;60.50;;;;;;5022422;28;20048;-49
2022/04/27 06:37:53;;;;;;;11.90;9.40;;;11.00;60.60;;;;;;5029034;28;20044;-50
2022/04/27 06:40:20;;;;;;;13.32;9.63;;;11.00;60.60;;;;;;5030229;28;20051;-48
2022/04/27 06:42:47;;;;;;;13.82;8.82;;;11.10;60.60;;;;;;5043956;28;20487;-50
2022/04/27 06:45:36;;;;;;;13.35;8.73;;;11.10;60.60;;;;;;5028153;28;20100;-51
2022/04/27 06:48:21;;;;;;;13.57;9.70;;;11.20;60.60;;;;;;5039543;28;20048;-49
2022/04/27 06:51:07;;;;;;;13.27;10.07;;;11.20;61.10;;;;;;5043726;28;20051;-50
2022/04/27 06:53:55;;;;;;;10.93;9.63;;;11.30;60.50;;;;;;5037340;28;20075;-48
2022/04/27 06:56:58;;;;;;;15.60;9.25;;;11.30;60.30;;;;;;4995713;28;20076;-47
2022/04/27 06:59:45;;;;;;;14.85;9.25;;;11.40;60.20;;;;;;5036955;28;20048;-51
2022/04/27 07:02:15;;;;;;;14.40;9.23;;;11.40;60.30;;;;;;5030433;28;20123;-52
2022/04/27 07:04:51;;;;;;;15.65;10.40;;;11.50;60.30;;;;;;5007403;28;20045;-51
2022/04/27 07:07:17;;;;;;;14.27;10.30;;;11.60;60.40;;;;;;5026356;28;20041;-50
2022/04/27 07:09:44;;;;;;;16.17;10.23;;;11.60;60.20;;;;;;5039404;28;20096;-52
2022/04/27 07:12:15;;;;;;;10.77;9.38;;;11.60;60.00;;;;;;5040995;28;20041;-52
2022/04/27 07:14:42;;;;;;;15.68;9.18;;;11.70;60.00;;;;;;5028417;28;20034;-50
2022/04/27 07:17:12;;;;;;;14.05;10.27;;;11.70;60.20;;;;;;5041269;28;20463;-50
2022/04/27 07:19:44;;;;;;;14.98;9.80;;;11.80;60.10;;;;;;5031139;28;20463;-50
2022/04/27 07:22:13;;;;;;;10.40;8.35;;;11.90;60.20;;;;;;5038235;28;20582;-52
2022/04/27 07:24:45;;;;;;;12.35;10.00;;;11.90;59.90;;;;;;5047950;28;20075;-51
2022/04/27 07:27:13;;;;;;;11.25;9.50;;;12.00;59.90;;;;;;5044062;28;20444;-52
2022/04/27 07:29:40;;;;;;;13.75;8.95;;;12.00;59.50;;;;;;5051815;28;20037;-51
2022/04/27 07:32:07;;;;;;;15.48;9.43;;;12.10;59.70;;;;;;5044295;28;20063;-51
2022/04/27 07:34:34;;;;;;;8.75;7.80;;;12.10;59.60;;;;;;5051817;28;20416;-52
2022/04/27 07:37:02;;;;;;;10.38;8.75;;;12.20;59.40;;;;;;5032382;28;20098;-50
2022/04/27 07:39:32;;;;;;;12.15;9.10;;;12.20;59.10;;;;;;5042244;28;20041;-51
2022/04/27 07:42:01;;;;;;;14.43;9.00;;;12.30;59.30;;;;;;5029766;28;20519;-49
2022/04/27 07:44:30;;;;;;;12.35;8.65;;;12.30;59.20;;;;;;5040541;28;20809;-48
2022/04/27 07:46:59;;;;;;;10.70;9.25;;;12.40;59.10;;;;;;5047971;28;20082;-48
2022/04/27 07:49:26;;;;;;;12.55;8.85;;;12.40;59.10;;;;;;5048060;28;20044;-52
2022/04/27 07:51:54;;;;;;;12.05;9.07;;;12.60;59.20;;;;;;5041580;28;20069;-49
2022/04/27 07:54:21;;;;;;;11.18;8.48;;;12.50;59.00;;;;;;5041523;28;20041;-48
2022/04/27 07:56:47;;;;;;;10.68;8.68;;;12.60;58.90;;;;;;5040132;28;20033;-50
2022/04/27 07:59:16;;;;;;;11.95;9.77;;;12.60;58.70;;;;;;5049141;28;20460;-47
2022/04/27 08:01:46;;;;;;;9.80;7.25;;;12.70;58.60;;;;;;5048177;28;20059;-49
2022/04/27 08:04:15;;;;;;;9.25;6.70;;;12.80;58.20;;;;;;5046422;28;20037;-48
2022/04/27 08:06:43;;;;;;;12.00;7.95;;;12.80;57.90;;;;;;5045259;28;20038;-49
2022/04/27 08:09:12;;;;;;;9.57;7.55;;;12.80;57.90;;;;;;5039446;28;20084;-47
2022/04/27 08:11:41;;;;;;;11.40;7.78;;;12.90;57.70;;;;;;5031492;28;20045;-48
2022/04/27 08:14:07;;;;;;;8.98;6.38;;;12.90;57.30;;;;;;5045324;28;20033;-50
2022/04/27 08:16:34;;;;;;;8.48;5.57;;;13.00;56.80;;;;;;5048038;28;20565;-48
2022/04/27 08:19:01;;;;;;;8.73;7.03;;;13.00;56.30;;;;;;5043203;28;20045;-48
2022/04/27 08:21:33;;;;;;;7.45;6.60;;;13.10;56.20;;;;;;5039511;28;20147;-51
2022/04/27 08:23:59;;;;;;;8.48;5.55;;;13.10;56.00;;;;;;5043630;28;20586;-48
2022/04/27 08:26:26;;;;;;;8.25;5.93;;;13.20;55.70;;;;;;5046257;28;20041;-52
2022/04/27 08:28:53;;;;;;;6.15;5.35;;;13.20;55.40;;;;;;5027300;28;20087;-49
2022/04/27 08:31:20;;;;;;;7.82;6.28;;;13.30;55.70;;;;;;5046201;28;20046;-52
2022/04/27 08:33:47;;;;;;;9.65;6.00;;;13.30;55.70;;;;;;5040448;28;20033;-52
2022/04/27 08:36:14;;;;;;;9.18;6.20;;;13.30;55.30;;;;;;5042336;28;20049;-52
2022/04/27 08:38:59;;;;;;;7.60;5.40;;;13.40;55.20;;;;;;5034413;28;20041;-51
2022/04/27 08:41:28;;;;;;;6.65;5.28;;;13.40;55.10;;;;;;5045389;28;20084;-51
2022/04/27 08:43:56;;;;;;;6.47;5.32;;;13.50;54.50;;;;;;5049154;28;20059;-52
2022/04/27 08:46:24;;;;;;;10.25;6.65;;;13.50;54.50;;;;;;5042069;28;20405;-52
2022/04/27 08:48:53;;;;;;;6.05;5.45;;;13.60;54.40;;;;;;5044819;28;20041;-52
2022/04/27 08:51:22;;;;;;;7.68;5.22;;;13.60;54.10;;;;;;5035474;28;20390;-52
2022/04/27 08:53:54;;;;;;;6.70;5.05;;;13.70;54.10;;;;;;5011898;28;20079;-51
2022/04/27 08:56:30;;;;;;;6.70;5.15;;;13.70;54.20;;;;;;5047017;28;20079;-52
2022/04/27 08:58:57;;;;;;;6.38;5.65;;;13.70;54.10;;;;;;5028101;28;20040;-52
2022/04/27 09:01:28;;;;;;;6.35;5.00;;;13.70;54.20;;;;;;5047036;28;20049;-49
2022/04/27 09:04:16;;;;;;;8.07;5.35;;;13.80;53.90;;;;;;5043281;28;20412;-50
2022/04/27 09:06:47;;;;;;;6.82;5.07;;;13.80;53.20;;;;;;5038516;28;20476;-52
2022/04/27 09:09:37;;;;;;;6.90;5.20;;;13.90;53.20;;;;;;5045464;28;20501;-49
2022/04/27 09:12:14;;;;;;;6.30;5.70;;;13.90;53.30;;;;;;5042515;28;20599;-51
2022/04/27 09:14:45;;;;;;;8.82;5.88;;;14.00;53.90;;;;;;5025090;28;20119;-51
2022/04/27 09:23:26;;;;;;;9.48;6.28;;;14.10;52.60;;;;;;5041037;28;20658;-52
2022/04/27 09:26:00;;;;;;;7.20;5.15;;;14.20;52.80;;;;;;5016249;28;20112;-52
2022/04/27 09:28:36;;;;;;;8.13;4.90;;;14.20;52.80;;;;;;5038609;28;20410;-48
2022/04/27 09:31:03;;;;;;;6.38;5.75;;;14.30;52.80;;;;;;5042267;28;20040;-51
2022/04/27 09:33:37;;;;;;;9.07;5.43;;;14.30;52.70;;;;;;5040750;28;20058;-51
2022/04/27 09:36:23;;;;;;;6.88;5.75;;;14.40;52.80;;;;;;5039300;28;20531;-51
2022/04/27 09:38:54;;;;;;;7.68;5.95;;;14.40;53.10;;;;;;5043406;28;20572;-48
2022/04/27 09:41:39;;;;;;;9.07;6.50;;;14.50;53.30;;;;;;5041885;28;20133;-52
2022/04/27 09:44:06;;;;;;;6.87;5.70;;;14.50;52.60;;;;;;5046084;28;20048;-48
2022/04/27 09:46:44;;;;;;;7.63;6.03;;;14.60;52.70;;;;;;5040213;28;20467;-48
2022/04/27 09:49:14;;;;;;;7.70;5.20;;;14.60;52.10;;;;;;5042934;28;20037;-50
2022/04/27 09:52:03;;;;;;;6.63;5.35;;;14.60;51.70;;;;;;5039790;28;20036;-51
2022/04/27 09:54:34;;;;;;;7.97;5.53;;;14.70;51.60;;;;;;5033186;28;20047;-49
2022/04/27 09:57:18;;;;;;;6.32;5.50;;;14.80;51.40;;;;;;5039416;28;20029;-51
2022/04/27 09:59:51;;;;;;;8.60;5.68;;;14.80;50.60;;;;;;5039635;28;20779;-50
2022/04/27 10:02:27;;;;;;;6.10;5.40;;;14.80;51.20;;;;;;5037339;28;20067;-51
2022/04/27 10:04:59;;;;;;;7.63;5.97;;;14.90;50.90;;;;;;5040414;28;20040;-50
2022/04/27 10:07:27;;;;;;;9.38;6.43;;;14.90;51.50;;;;;;5044082;28;20045;-51
2022/04/27 10:09:59;;;;;;;9.20;5.85;;;15.00;51.40;;;;;;5011491;28;20064;-50
2022/04/27 10:12:34;;;;;;;9.15;6.10;;;15.00;51.40;;;;;;5027539;28;20046;-52
2022/04/27 10:15:05;;;;;;;7.97;6.47;;;15.10;51.80;;;;;;5035024;28;20091;-50
2022/04/27 10:17:34;;;;;;;7.10;5.80;;;15.10;51.90;;;;;;5044175;28;20048;-47
2022/04/27 10:20:01;;;;;;;8.40;6.32;;;15.10;51.80;;;;;;5042830;28;20041;-52
2022/04/27 10:22:32;;;;;;;6.57;5.78;;;15.20;51.80;;;;;;5031075;28;20658;-48
2022/04/27 10:25:11;;;;;;;7.20;6.20;;;15.20;51.30;;;;;;5029092;28;20061;-51
2022/04/27 10:27:41;;;;;;;8.10;5.97;;;15.30;51.10;;;;;;5042741;28;20807;-48
2022/04/27 10:30:14;;;;;;;10.10;6.47;;;15.30;51.00;;;;;;5036224;28;20041;-52
2022/04/27 10:32:42;;;;;;;7.32;5.78;;;15.40;50.10;;;;;;5041208;28;20116;-52
2022/04/27 10:35:12;;;;;;;7.35;5.95;;;15.40;50.40;;;;;;5037485;28;20479;-52
2022/04/27 10:37:57;;;;;;;6.45;5.40;;;15.40;51.60;;;;;;5038649;28;20073;-52
2022/04/27 10:40:34;;;;;;;7.60;5.38;;;15.50;50.90;;;;;;5046291;28;20095;-52
2022/04/27 10:43:06;;;;;;;6.88;5.88;;;15.50;51.20;;;;;;5044270;28;20063;-51
2022/04/27 10:45:43;;;;;;;8.18;6.30;;;15.60;50.50;;;;;;5042452;28;20052;-51
2022/04/27 10:48:23;;;;;;;8.80;6.07;;;15.70;50.20;;;;;;5034395;28;20409;-52
2022/04/27 10:51:07;;;;;;;7.82;6.25;;;15.70;50.40;;;;;;5039031;28;20516;-51
2022/04/27 10:53:44;;;;;;;6.22;5.63;;;15.80;50.10;;;;;;5036159;28;20045;-52
2022/04/27 10:56:31;;;;;;;8.02;5.63;;;15.80;50.10;;;;;;5035227;28;20103;-52
2022/04/27 10:58:58;;;;;;;8.45;6.50;;;15.90;50.10;;;;;;5037533;28;20076;-48
2022/04/27 11:01:27;;;;;;;7.10;6.30;;;15.90;50.10;;;;;;5032686;28;20073;-51
2022/04/27 11:04:03;;;;;;;6.13;5.53;;;15.90;49.20;;;;;;5045800;28;20044;-51
2022/04/27 11:06:56;;;;;;;8.45;6.10;;;16.00;48.90;;;;;;5042292;28;20045;-52
2022/04/27 11:09:54;;;;;;;6.65;5.35;;;16.00;50.80;;;;;;5039631;28;20045;-49
2022/04/27 11:12:25;;;;;;;7.35;5.97;;;16.10;49.80;;;;;;5043239;28;20048;-51
2022/04/27 11:15:00;;;;;;;7.10;6.22;;;16.20;50.20;;;;;;5052572;28;20044;-50
2022/04/27 11:17:34;;;;;;;9.05;6.35;;;16.30;49.00;;;;;;5022390;28;20077;-50
2022/04/27 11:20:03;;;;;;;7.90;6.43;;;16.40;49.10;;;;;;5039115;28;20451;-52
2022/04/27 11:22:38;;;;;;;8.70;6.20;;;16.50;49.00;;;;;;5034729;28;20053;-51
2022/04/27 11:25:09;;;;;;;7.30;5.50;;;16.50;48.90;;;;;;5048599;28;20124;-49
2022/04/27 11:27:38;;;;;;;8.18;6.38;;;16.60;48.90;;;;;;5051959;28;20037;-48
2022/04/27 11:30:08;;;;;;;8.93;6.65;;;16.70;48.40;;;;;;5049502;28;20059;-51
2022/04/27 11:32:44;;;;;;;7.80;6.18;;;16.80;48.30;;;;;;5041771;28;20204;-48
2022/04/27 11:35:11;;;;;;;8.43;7.00;;;16.80;48.20;;;;;;5038936;28;20036;-51
2022/04/27 11:37:38;;;;;;;7.00;6.30;;;16.90;48.00;;;;;;5045693;28;20045;-47
2022/04/27 11:40:13;;;;;;;7.53;6.68;;;16.90;47.30;;;;;;5051477;28;20064;-52
2022/04/27 11:42:47;;;;;;;7.53;6.63;;;16.90;46.20;;;;;;5039963;28;20045;-52
2022/04/27 11:45:23;;;;;;;7.38;6.38;;;17.00;46.80;;;;;;5030644;28;20128;-48
2022/04/27 11:48:02;;;;;;;7.72;6.30;;;17.00;47.30;;;;;;5034373;28;20065;-52
2022/04/27 11:50:30;;;;;;;7.00;5.95;;;17.10;47.80;;;;;;5042981;28;20539;-50
2022/04/27 11:53:05;;;;;;;7.68;5.90;;;17.10;47.60;;;;;;5041477;28;20492;-51
2022/04/27 11:55:36;;;;;;;6.47;5.88;;;17.20;47.60;;;;;;5048054;28;20052;-52
2022/04/27 11:58:04;;;;;;;7.05;5.63;;;17.30;47.20;;;;;;5044215;28;20050;-52
2022/04/27 12:00:34;;;;;;;6.93;6.13;;;17.30;46.90;;;;;;5051320;28;20645;-52
2022/04/27 12:03:05;;;;;;;7.68;6.53;;;17.40;46.30;;;;;;5046460;28;20037;-48
2022/04/27 12:05:41;;;;;;;6.68;6.05;;;17.50;46.50;;;;;;5045785;28;20453;-51
2022/04/27 12:08:11;;;;;;;;;;;17.60;46.70;;;;;;5036470;28;20122;-49
2022/04/27 12:10:40;;;;;;;6.50;5.65;;;17.70;47.30;;;;;;5042877;28;19921;-52
2022/04/27 12:13:15;;;;;;;7.38;6.13;;;17.80;46.10;;;;;;5042554;28;20545;-51
2022/04/27 12:15:51;;;;;;;6.63;5.88;;;17.90;45.60;;;;;;5036371;28;20049;-50
2022/04/27 12:18:19;;;;;;;9.00;6.20;;;18.00;45.90;;;;;;5044195;28;20041;-50
2022/04/27 12:20:48;;;;;;;9.52;7.13;;;18.10;45.60;;;;;;5051511;28;20578;-51
2022/04/27 12:23:35;;;;;;;7.70;6.47;;;18.10;45.30;;;;;;5079159;22;20119;-48
2022/04/27 12:26:03;;;;;;;7.75;6.93;;;18.20;45.00;;;;;;5069671;28;20408;-49
2022/04/27 12:28:40;;;;;;;8.88;7.40;;;18.30;45.80;;;;;;5068386;28;20048;-47
2022/04/27 12:31:10;;;;;;;6.95;6.15;;;18.40;45.90;;;;;;5075330;28;20134;-47
2022/04/27 12:33:48;;;;;;;7.82;6.22;;;18.50;46.40;;;;;;5087096;28;20042;-48
2022/04/27 12:39:23;;;;;;;7.47;6.10;;;18.80;45.30;;;;;;5083509;28;20507;-48
2022/04/27 12:41:52;;;;;;;8.48;6.20;;;18.90;45.30;;;;;;5091059;28;20131;-48
2022/04/27 12:44:28;;;;;;;9.38;6.72;;;19.10;45.80;;;;;;5087865;28;20044;-50
2022/04/27 12:47:04;;;;;;;7.35;6.53;;;19.20;44.60;;;;;;5086067;28;20119;-50
2022/04/27 12:49:39;;;;;;;9.05;7.20;;;19.40;44.60;;;;;;5075803;28;20036;-48
2022/04/27 12:52:33;;;;;;;10.00;7.57;;;19.50;44.50;;;;;;5081490;28;20060;-48
2022/04/27 12:55:08;;;;;;;7.60;6.50;;;19.70;43.30;;;;;;5087512;28;20040;-48
2022/04/27 12:57:53;;;;;;;8.48;7.68;;;19.70;42.10;;;;;;5081734;28;20407;-47
2022/04/27 13:00:20;;;;;;;;;;;19.70;41.30;;;;;;5090601;28;20553;-50
2022/04/27 13:02:56;;;;;;;9.35;6.65;;;19.70;42.30;;;;;;5089000;28;19919;-49
2022/04/27 13:05:27;;;;;;;7.55;6.30;;;19.60;42.60;;;;;;5083249;28;20083;-48
2022/04/27 13:07:56;;;;;;;9.48;7.10;;;19.60;43.10;;;;;;5076708;28;20051;-49
2022/04/27 13:13:15;;;;;;;8.90;6.90;;;19.70;43.50;;;;;;5089613;28;20040;-48
2022/04/27 13:15:45;;;;;;;7.60;6.90;;;19.90;43.70;;;;;;5082986;28;20601;-50
2022/04/27 13:18:17;;;;;;;8.50;6.65;;;20.00;42.70;;;;;;5082055;28;20504;-49
2022/04/27 13:20:53;;;;;;;8.13;7.32;;;20.10;42.70;;;;;;5081804;28;20036;-48
2022/04/27 13:23:21;;;;;;;9.43;6.68;;;20.20;42.30;;;;;;5082192;28;20037;-50
2022/04/27 13:25:48;;;;;;;8.68;7.15;;;20.20;42.50;;;;;;5090562;28;20089;-48
2022/04/27 13:28:15;;;;;;;9.35;7.20;;;20.30;42.20;;;;;;5073238;28;20033;-47
2022/04/27 13:30:47;;;;;;;8.57;7.00;;;20.40;42.40;;;;;;5071527;28;20040;-48
2022/04/27 13:33:14;;;;;;;7.82;7.03;;;20.60;42.40;;;;;;5081888;28;20032;-48
2022/04/27 13:35:43;;;;;;;7.22;6.40;;;21.10;43.60;;;;;;5085233;28;20060;-50
2022/04/27 13:38:10;;;;;;;8.52;5.97;;;21.70;44.20;;;;;;5072790;28;20044;-48
2022/04/27 13:40:37;;;;;;;6.65;6.00;;;22.60;44.30;;;;;;5073850;28;20055;-50